^^
Grace C. Lehan Memorial Weather Station Historical Data
Daily Summary for March 27, 2021 Units:  Both    English   Metric
Daily Weekly Monthly Yearly
  High: Low: Average:
Temperature: 40.9 °F /  4.9 °C 34.6 °F /  1.4 °C 36.7 °F /  2.6 °C
Dew Point: 30.1 °F /  -1.1 °C 21.6 °F /  -5.8 °C 26.9 °F /  -2.8 °C
Humidity: 81% 46.7% 68%
Wind Speed: 14.2mph /  22.9km/h - 5.7mph /  9.2km/h
Wind Gust: 28mph /  45.1km/h - -
Wind- - WNW
Pressure: 29.75 in /  1007.3 hPa 29.53 in /  999.9 hPa -
Precipitation: 0.00 in /  0 mm    
 
 
Tabular Data for March 27, 2021
Time Temperature Dew Point Pressure Wind Wind Speed Wind Gust Humidity Rainfall Rate (Hourly) solar
00:04 35.3 °F /  1.8 °C 30.1 °F /  -1.1 °C 29.53in /  999.9hPa West 0.8mph /  1.3km/h 11mph /  17.7km/h 81% 0.00in /  0mm 0 W/m2
00:09 35.3 °F /  1.8 °C 30.1 °F /  -1.1 °C 29.54in /  1000.2hPa West 1.9mph /  3.1km/h 9mph /  14.5km/h 81% 0.00in /  0mm 0 W/m2
00:14 35.3 °F /  1.8 °C 30.1 °F /  -1.1 °C 29.54in /  1000.2hPa West 0.1mph /  0.2km/h 9mph /  14.5km/h 81% 0.00in /  0mm 0 W/m2
00:19 35.3 °F /  1.8 °C 30.1 °F /  -1.1 °C 29.54in /  1000.2hPa WNW 2.1mph /  3.4km/h 9mph /  14.5km/h 81% 0.00in /  0mm 0 W/m2
00:24 35.3 °F /  1.8 °C 29.9 °F /  -1.2 °C 29.54in /  1000.2hPa WSW 2.2mph /  3.5km/h 11mph /  17.7km/h 80.3% 0.00in /  0mm 0 W/m2
00:29 35.3 °F /  1.8 °C 29.8 °F /  -1.2 °C 29.54in /  1000.2hPa West 0.7mph /  1.1km/h 11mph /  17.7km/h 80% 0.00in /  0mm 0 W/m2
00:34 35.3 °F /  1.8 °C 29.8 °F /  -1.2 °C 29.54in /  1000.2hPa WNW 3mph /  4.8km/h 11mph /  17.7km/h 80% 0.00in /  0mm 0 W/m2
00:39 35.4 °F /  1.9 °C 29.9 °F /  -1.2 °C 29.54in /  1000.2hPa WNW 1mph /  1.6km/h 10mph /  16.1km/h 80% 0.00in /  0mm 0 W/m2
00:44 35.5 °F /  1.9 °C 29.9 °F /  -1.2 °C 29.54in /  1000.2hPa West 2.5mph /  4km/h 15mph /  24.1km/h 80% 0.00in /  0mm 0 W/m2
00:49 35.6 °F /  2 °C 29.8 °F /  -1.2 °C 29.54in /  1000.2hPa West 4.2mph /  6.8km/h 15mph /  24.1km/h 79% 0.00in /  0mm 0 W/m2
00:54 35.7 °F /  2.1 °C 29.9 °F /  -1.2 °C 29.54in /  1000.2hPa WNW 2.1mph /  3.4km/h 15mph /  24.1km/h 79% 0.00in /  0mm 0 W/m2
00:59 35.8 °F /  2.1 °C 30 °F /  -1.1 °C 29.54in /  1000.2hPa West 3.1mph /  5km/h 15mph /  24.1km/h 79% 0.00in /  0mm 0 W/m2
01:04 35.9 °F /  2.2 °C 29.8 °F /  -1.2 °C 29.54in /  1000.2hPa West 1.3mph /  2.1km/h 15mph /  24.1km/h 78.2% 0.00in /  0mm 0 W/m2
01:09 36 °F /  2.2 °C 29.8 °F /  -1.2 °C 29.54in /  1000.2hPa WNW 5.3mph /  8.5km/h 14mph /  22.5km/h 78% 0.00in /  0mm 0 W/m2
01:14 36.1 °F /  2.3 °C 29.8 °F /  -1.2 °C 29.55in /  1000.6hPa West 4.2mph /  6.8km/h 14mph /  22.5km/h 77.7% 0.00in /  0mm 0 W/m2
01:19 36.2 °F /  2.3 °C 29.7 °F /  -1.3 °C 29.55in /  1000.6hPa West 4.3mph /  6.9km/h 14mph /  22.5km/h 77% 0.00in /  0mm 0 W/m2
01:24 36.3 °F /  2.4 °C 29.8 °F /  -1.2 °C 29.56in /  1000.9hPa West 6.1mph /  9.8km/h 15mph /  24.1km/h 77% 0.00in /  0mm 0 W/m2
01:29 36.4 °F /  2.4 °C 29.8 °F /  -1.2 °C 29.56in /  1000.9hPa West 3.3mph /  5.3km/h 15mph /  24.1km/h 76.7% 0.00in /  0mm 0 W/m2
01:34 36.4 °F /  2.4 °C 29.6 °F /  -1.3 °C 29.56in /  1000.9hPa WSW 2.7mph /  4.3km/h 15mph /  24.1km/h 76% 0.00in /  0mm 0 W/m2
01:39 36.5 °F /  2.5 °C 29.7 °F /  -1.3 °C 29.56in /  1000.9hPa West 3.4mph /  5.5km/h 12mph /  19.3km/h 76% 0.00in /  0mm 0 W/m2
01:44 36.5 °F /  2.5 °C 29.5 °F /  -1.4 °C 29.57in /  1001.2hPa WNW 4.8mph /  7.7km/h 12mph /  19.3km/h 75.4% 0.00in /  0mm 0 W/m2
01:49 36.6 °F /  2.6 °C 29.4 °F /  -1.4 °C 29.57in /  1001.2hPa WNW 5mph /  8km/h 12mph /  19.3km/h 75% 0.00in /  0mm 0 W/m2
01:54 36.6 °F /  2.6 °C 29.4 °F /  -1.4 °C 29.57in /  1001.2hPa WNW 5.5mph /  8.9km/h 15mph /  24.1km/h 75% 0.00in /  0mm 0 W/m2
01:59 36.6 °F /  2.6 °C 29.3 °F /  -1.5 °C 29.57in /  1001.2hPa WNW 8mph /  12.9km/h 15mph /  24.1km/h 74.6% 0.00in /  0mm 0 W/m2
02:04 36.6 °F /  2.6 °C 29.1 °F /  -1.6 °C 29.57in /  1001.2hPa WNW 4.5mph /  7.2km/h 15mph /  24.1km/h 74% 0.00in /  0mm 0 W/m2
02:09 36.6 °F /  2.6 °C 29.1 °F /  -1.6 °C 29.57in /  1001.2hPa WNW 5.8mph /  9.3km/h 17mph /  27.4km/h 74% 0.00in /  0mm 0 W/m2
02:14 36.6 °F /  2.6 °C 28.8 °F /  -1.8 °C 29.57in /  1001.2hPa WNW 8mph /  12.9km/h 19mph /  30.6km/h 73% 0.00in /  0mm 0 W/m2
02:19 36.6 °F /  2.6 °C 28.8 °F /  -1.8 °C 29.58in /  1001.6hPa WNW 6.7mph /  10.8km/h 19mph /  30.6km/h 73% 0.00in /  0mm 0 W/m2
02:24 36.6 °F /  2.6 °C 28.7 °F /  -1.8 °C 29.58in /  1001.6hPa WNW 7.9mph /  12.7km/h 19mph /  30.6km/h 72.8% 0.00in /  0mm 0 W/m2
02:29 36.6 °F /  2.6 °C 28.7 °F /  -1.8 °C 29.58in /  1001.6hPa WNW 6.7mph /  10.8km/h 19mph /  30.6km/h 72.8% 0.00in /  0mm 0 W/m2
02:34 36.5 °F /  2.5 °C 28.6 °F /  -1.9 °C 29.58in /  1001.6hPa WNW 4.4mph /  7.1km/h 19mph /  30.6km/h 72.6% 0.00in /  0mm 0 W/m2
02:39 36.5 °F /  2.5 °C 28.6 °F /  -1.9 °C 29.59in /  1001.9hPa West 5.3mph /  8.5km/h 15mph /  24.1km/h 72.7% 0.00in /  0mm 0 W/m2
02:44 36.4 °F /  2.4 °C 28.3 °F /  -2.1 °C 29.59in /  1001.9hPa WNW 9.6mph /  15.4km/h 22mph /  35.4km/h 72.2% 0.00in /  0mm 0 W/m2
02:49 36.4 °F /  2.4 °C 28.3 °F /  -2.1 °C 29.59in /  1001.9hPa WNW 9.5mph /  15.3km/h 23mph /  37km/h 72% 0.00in /  0mm 0 W/m2
02:54 36.4 °F /  2.4 °C 28.2 °F /  -2.1 °C 29.59in /  1001.9hPa NW 7.5mph /  12.1km/h 23mph /  37km/h 72% 0.00in /  0mm 0 W/m2
02:59 36.3 °F /  2.4 °C 28 °F /  -2.2 °C 29.59in /  1001.9hPa WNW 12.2mph /  19.6km/h 23mph /  37km/h 71.6% 0.00in /  0mm 0 W/m2
03:04 36.3 °F /  2.4 °C 27.9 °F /  -2.3 °C 29.60in /  1002.3hPa WNW 7.6mph /  12.2km/h 23mph /  37km/h 71.3% 0.00in /  0mm 0 W/m2
03:09 36.3 °F /  2.4 °C 27.9 °F /  -2.3 °C 29.60in /  1002.3hPa WNW 4mph /  6.4km/h 18mph /  29km/h 71.3% 0.00in /  0mm 0 W/m2
03:14 36.3 °F /  2.4 °C 28 °F /  -2.2 °C 29.60in /  1002.3hPa WNW 3.8mph /  6.1km/h 18mph /  29km/h 71.5% 0.00in /  0mm 0 W/m2
03:19 36.2 °F /  2.3 °C 27.9 °F /  -2.3 °C 29.61in /  1002.6hPa WNW 4.9mph /  7.9km/h 18mph /  29km/h 71.5% 0.00in /  0mm 0 W/m2
03:24 36.2 °F /  2.3 °C 27.9 °F /  -2.3 °C 29.61in /  1002.6hPa WNW 5.8mph /  9.3km/h 18mph /  29km/h 71.5% 0.00in /  0mm 0 W/m2
03:30 36.2 °F /  2.3 °C 27.7 °F /  -2.4 °C 29.61in /  1002.6hPa WNW 6mph /  9.7km/h 18mph /  29km/h 71% 0.00in /  0mm 0 W/m2
04:04 36.1 °F /  2.3 °C 27.6 °F /  -2.4 °C 29.62in /  1002.9hPa West 11mph /  17.7km/h 22mph /  35.4km/h 71% 0.00in /  0mm 0 W/m2
04:09 36.1 °F /  2.3 °C 27.6 °F /  -2.4 °C 29.62in /  1002.9hPa WNW 11mph /  17.7km/h 22mph /  35.4km/h 71% 0.00in /  0mm 0 W/m2
04:14 36.1 °F /  2.3 °C 27.6 °F /  -2.4 °C 29.63in /  1003.3hPa NW 8.4mph /  13.5km/h 22mph /  35.4km/h 71% 0.00in /  0mm 0 W/m2
04:19 36.1 °F /  2.3 °C 27.6 °F /  -2.4 °C 29.63in /  1003.3hPa NW 8.6mph /  13.8km/h 22mph /  35.4km/h 70.8% 0.00in /  0mm 0 W/m2
04:24 36.1 °F /  2.3 °C 27.5 °F /  -2.5 °C 29.63in /  1003.3hPa WNW 6.1mph /  9.8km/h 22mph /  35.4km/h 70.6% 0.00in /  0mm 0 W/m2
04:29 36.1 °F /  2.3 °C 27.6 °F /  -2.4 °C 29.63in /  1003.3hPa NW 2.1mph /  3.4km/h 22mph /  35.4km/h 71% 0.00in /  0mm 0 W/m2
04:34 36 °F /  2.2 °C 27.5 °F /  -2.5 °C 29.63in /  1003.3hPa WNW 1.7mph /  2.7km/h 22mph /  35.4km/h 71% 0.00in /  0mm 0 W/m2
04:39 36 °F /  2.2 °C 27.5 °F /  -2.5 °C 29.64in /  1003.6hPa WNW 5.4mph /  8.7km/h 14mph /  22.5km/h 71% 0.00in /  0mm 0 W/m2
04:44 35.9 °F /  2.2 °C 27.4 °F /  -2.6 °C 29.64in /  1003.6hPa WNW 5.3mph /  8.5km/h 15mph /  24.1km/h 71% 0.00in /  0mm 0 W/m2
04:49 35.9 °F /  2.2 °C 27.4 °F /  -2.6 °C 29.64in /  1003.6hPa WNW 6.3mph /  10.1km/h 16mph /  25.7km/h 71% 0.00in /  0mm 0 W/m2
04:54 35.9 °F /  2.2 °C 27.4 °F /  -2.6 °C 29.64in /  1003.6hPa WNW 8mph /  12.9km/h 20mph /  32.2km/h 71% 0.00in /  0mm 0 W/m2
04:59 35.9 °F /  2.2 °C 27.4 °F /  -2.6 °C 29.64in /  1003.6hPa NW 10.2mph /  16.4km/h 22mph /  35.4km/h 71% 0.00in /  0mm 0 W/m2
05:04 35.9 °F /  2.2 °C 27.1 °F /  -2.7 °C 29.65in /  1003.9hPa NW 7.4mph /  11.9km/h 22mph /  35.4km/h 70.1% 0.00in /  0mm 0 W/m2
05:09 35.9 °F /  2.2 °C 27.1 °F /  -2.7 °C 29.65in /  1003.9hPa WNW 8.7mph /  14km/h 20mph /  32.2km/h 70% 0.00in /  0mm 0 W/m2
05:14 35.9 °F /  2.2 °C 27.3 °F /  -2.6 °C 29.65in /  1003.9hPa WNW 5mph /  8km/h 20mph /  32.2km/h 70.7% 0.00in /  0mm 0 W/m2
05:19 35.9 °F /  2.2 °C 27.4 °F /  -2.6 °C 29.65in /  1003.9hPa WNW 7.4mph /  11.9km/h 20mph /  32.2km/h 70.8% 0.00in /  0mm 0 W/m2
05:24 35.9 °F /  2.2 °C 27.4 °F /  -2.6 °C 29.65in /  1003.9hPa WNW 2.3mph /  3.7km/h 20mph /  32.2km/h 71% 0.00in /  0mm 0 W/m2
05:29 35.8 °F /  2.1 °C 27.4 °F /  -2.6 °C 29.65in /  1003.9hPa WNW 3.6mph /  5.8km/h 20mph /  32.2km/h 71% 0.00in /  0mm 0 W/m2
05:34 35.8 °F /  2.1 °C 27.3 °F /  -2.6 °C 29.65in /  1003.9hPa WNW 2.8mph /  4.5km/h 20mph /  32.2km/h 71% 0.00in /  0mm 0 W/m2
05:39 35.7 °F /  2.1 °C 27.3 °F /  -2.6 °C 29.66in /  1004.3hPa West 5.8mph /  9.3km/h 16mph /  25.7km/h 71% 0.00in /  0mm 0 W/m2
05:44 35.7 °F /  2.1 °C 27.2 °F /  -2.7 °C 29.66in /  1004.3hPa WNW 7.2mph /  11.6km/h 16mph /  25.7km/h 71% 0.00in /  0mm 0 W/m2
05:49 35.7 °F /  2.1 °C 27.2 °F /  -2.7 °C 29.66in /  1004.3hPa West 5.3mph /  8.5km/h 16mph /  25.7km/h 71% 0.00in /  0mm 0 W/m2
05:54 35.7 °F /  2.1 °C 27.2 °F /  -2.7 °C 29.66in /  1004.3hPa West 4.1mph /  6.6km/h 16mph /  25.7km/h 71% 0.00in /  0mm 0 W/m2
05:59 35.7 °F /  2.1 °C 27.2 °F /  -2.7 °C 29.67in /  1004.6hPa WNW 3.5mph /  5.6km/h 16mph /  25.7km/h 71% 0.00in /  0mm 0 W/m2
06:04 35.7 °F /  2.1 °C 27.2 °F /  -2.7 °C 29.67in /  1004.6hPa WNW 1.8mph /  2.9km/h 16mph /  25.7km/h 71% 0.00in /  0mm 0 W/m2
06:09 35.6 °F /  2 °C 27.1 °F /  -2.7 °C 29.67in /  1004.6hPa NW 7.5mph /  12.1km/h 16mph /  25.7km/h 71% 0.00in /  0mm 0 W/m2
06:14 35.6 °F /  2 °C 27.1 °F /  -2.7 °C 29.67in /  1004.6hPa WNW 4.7mph /  7.6km/h 16mph /  25.7km/h 71% 0.00in /  0mm 0 W/m2
06:19 35.5 °F /  1.9 °C 27 °F /  -2.8 °C 29.67in /  1004.6hPa WNW 5.6mph /  9km/h 16mph /  25.7km/h 70.9% 0.00in /  0mm 0 W/m2
06:24 35.5 °F /  1.9 °C 26.7 °F /  -2.9 °C 29.67in /  1004.6hPa WNW 3mph /  4.8km/h 16mph /  25.7km/h 70% 0.00in /  0mm 0 W/m2
06:29 35.4 °F /  1.9 °C 26.7 °F /  -2.9 °C 29.68in /  1005hPa WNW 3.9mph /  6.3km/h 16mph /  25.7km/h 70.2% 0.00in /  0mm 0 W/m2
06:34 35.3 °F /  1.8 °C 26.5 °F /  -3.1 °C 29.68in /  1005hPa NW 5.2mph /  8.4km/h 16mph /  25.7km/h 70% 0.00in /  0mm 0 W/m2
06:39 35.2 °F /  1.8 °C 26.5 °F /  -3.1 °C 29.68in /  1005hPa WNW 2.4mph /  3.9km/h 13mph /  20.9km/h 70% 0.00in /  0mm 0 W/m2
06:44 35.2 °F /  1.8 °C 26.4 °F /  -3.1 °C 29.69in /  1005.3hPa WNW 3.8mph /  6.1km/h 13mph /  20.9km/h 70% 0.00in /  0mm 0 W/m2
06:49 35.1 °F /  1.7 °C 26.3 °F /  -3.2 °C 29.69in /  1005.3hPa WNW 0.2mph /  0.3km/h 13mph /  20.9km/h 70% 0.00in /  0mm 0 W/m2
06:54 35.1 °F /  1.7 °C 26.4 °F /  -3.1 °C 29.69in /  1005.3hPa WNW 0.8mph /  1.3km/h 13mph /  20.9km/h 70.4% 0.00in /  0mm 0 W/m2
06:59 34.9 °F /  1.6 °C 26.2 °F /  -3.2 °C 29.69in /  1005.3hPa WNW 1.9mph /  3.1km/h 13mph /  20.9km/h 70.1% 0.00in /  0mm 5 W/m2
07:04 34.9 °F /  1.6 °C 26.1 °F /  -3.3 °C 29.69in /  1005.3hPa WNW 0.1mph /  0.2km/h 13mph /  20.9km/h 70% 0.00in /  0mm 9 W/m2
07:09 34.8 °F /  1.6 °C 26 °F /  -3.3 °C 29.69in /  1005.3hPa WNW 0.8mph /  1.3km/h 5mph /  8km/h 70% 0.00in /  0mm 12 W/m2
07:14 34.7 °F /  1.5 °C 25.9 °F /  -3.4 °C 29.69in /  1005.3hPa West 1.2mph /  1.9km/h 7mph /  11.3km/h 70% 0.00in /  0mm 14 W/m2
07:19 34.6 °F /  1.4 °C 25.8 °F /  -3.4 °C 29.69in /  1005.3hPa West 2.3mph /  3.7km/h 10mph /  16.1km/h 70% 0.00in /  0mm 19 W/m2
07:24 34.6 °F /  1.4 °C 25.8 °F /  -3.4 °C 29.70in /  1005.6hPa WNW 3mph /  4.8km/h 11mph /  17.7km/h 70% 0.00in /  0mm 26 W/m2
07:29 34.6 °F /  1.4 °C 25.6 °F /  -3.6 °C 29.70in /  1005.6hPa WNW 3.3mph /  5.3km/h 11mph /  17.7km/h 69.3% 0.00in /  0mm 30 W/m2
07:34 34.7 °F /  1.5 °C 25.6 °F /  -3.6 °C 29.70in /  1005.6hPa WNW 3.8mph /  6.1km/h 14mph /  22.5km/h 68.8% 0.00in /  0mm 46 W/m2
07:39 35 °F /  1.7 °C 25.4 °F /  -3.7 °C 29.70in /  1005.6hPa WNW 7.4mph /  11.9km/h 18mph /  29km/h 67.6% 0.00in /  0mm 56 W/m2
07:44 35.3 °F /  1.8 °C 25.5 °F /  -3.6 °C 29.71in /  1006hPa WNW 4.4mph /  7.1km/h 18mph /  29km/h 67% 0.00in /  0mm 100 W/m2
07:49 35.8 °F /  2.1 °C 25.8 °F /  -3.4 °C 29.71in /  1006hPa WNW 3mph /  4.8km/h 18mph /  29km/h 66.7% 0.00in /  0mm 90 W/m2
07:54 36.3 °F /  2.4 °C 25.8 °F /  -3.4 °C 29.71in /  1006hPa WNW 2.2mph /  3.5km/h 18mph /  29km/h 65.3% 0.00in /  0mm 69 W/m2
07:59 36.7 °F /  2.6 °C 26 °F /  -3.3 °C 29.72in /  1006.3hPa WNW 0.7mph /  1.1km/h 18mph /  29km/h 65% 0.00in /  0mm 98 W/m2
08:04 37 °F /  2.8 °C 26 °F /  -3.3 °C 29.72in /  1006.3hPa WNW 3.4mph /  5.5km/h 4mph /  6.4km/h 64% 0.00in /  0mm 155 W/m2
08:09 37.1 °F /  2.8 °C 25.8 °F /  -3.4 °C 29.72in /  1006.3hPa WNW 8.9mph /  14.3km/h 19mph /  30.6km/h 63.3% 0.00in /  0mm 202 W/m2
08:14 37.2 °F /  2.9 °C 25.7 °F /  -3.5 °C 29.72in /  1006.3hPa WNW 7.8mph /  12.6km/h 19mph /  30.6km/h 62.8% 0.00in /  0mm 113 W/m2
08:19 37.3 °F /  2.9 °C 25.9 °F /  -3.4 °C 29.72in /  1006.3hPa NW 5.2mph /  8.4km/h 19mph /  30.6km/h 63% 0.00in /  0mm 227 W/m2
08:24 37.6 °F /  3.1 °C 26.2 °F /  -3.2 °C 29.73in /  1006.7hPa WNW 6.6mph /  10.6km/h 19mph /  30.6km/h 62.9% 0.00in /  0mm 234 W/m2
08:29 38.1 °F /  3.4 °C 26 °F /  -3.3 °C 29.72in /  1006.3hPa WNW 10.6mph /  17.1km/h 21mph /  33.8km/h 61.4% 0.00in /  0mm 241 W/m2
08:34 38.3 °F /  3.5 °C 26.2 °F /  -3.2 °C 29.73in /  1006.7hPa WNW 4.5mph /  7.2km/h 21mph /  33.8km/h 61.2% 0.00in /  0mm 243 W/m2
08:39 38.7 °F /  3.7 °C 26.3 °F /  -3.2 °C 29.72in /  1006.3hPa WNW 9mph /  14.5km/h 19mph /  30.6km/h 60.7% 0.00in /  0mm 248 W/m2
08:44 38.7 °F /  3.7 °C 26 °F /  -3.3 °C 29.73in /  1006.7hPa WNW 7.6mph /  12.2km/h 19mph /  30.6km/h 60% 0.00in /  0mm 246 W/m2
08:49 38.7 °F /  3.7 °C 26.1 °F /  -3.3 °C 29.73in /  1006.7hPa WNW 7.4mph /  11.9km/h 19mph /  30.6km/h 60.4% 0.00in /  0mm 214 W/m2
08:54 38.5 °F /  3.6 °C 25.9 °F /  -3.4 °C 29.73in /  1006.7hPa WNW 8.2mph /  13.2km/h 19mph /  30.6km/h 60.2% 0.00in /  0mm 213 W/m2
08:59 38.1 °F /  3.4 °C 25.6 °F /  -3.6 °C 29.73in /  1006.7hPa WNW 11.6mph /  18.7km/h 21mph /  33.8km/h 60.2% 0.00in /  0mm 135 W/m2
09:04 37.7 °F /  3.2 °C 25 °F /  -3.9 °C 29.74in /  1007hPa WNW 9.1mph /  14.6km/h 21mph /  33.8km/h 60% 0.00in /  0mm 179 W/m2
09:09 37.4 °F /  3 °C 24.8 °F /  -4 °C 29.74in /  1007hPa WNW 8.6mph /  13.8km/h 21mph /  33.8km/h 60% 0.00in /  0mm 160 W/m2
09:14 37.4 °F /  3 °C 24.7 °F /  -4.1 °C 29.74in /  1007hPa WNW 10.1mph /  16.3km/h 21mph /  33.8km/h 60% 0.00in /  0mm 149 W/m2
09:19 37.3 °F /  2.9 °C 24.3 °F /  -4.3 °C 29.74in /  1007hPa NW 9.6mph /  15.4km/h 21mph /  33.8km/h 59% 0.00in /  0mm 197 W/m2
09:24 37.4 °F /  3 °C 24.4 °F /  -4.2 °C 29.74in /  1007hPa NW 9.1mph /  14.6km/h 21mph /  33.8km/h 59% 0.00in /  0mm 178 W/m2
09:29 37.5 °F /  3.1 °C 24.2 °F /  -4.3 °C 29.75in /  1007.3hPa NW 6.9mph /  11.1km/h 21mph /  33.8km/h 58.5% 0.00in /  0mm 146 W/m2
09:34 37.5 °F /  3.1 °C 24.3 °F /  -4.3 °C 29.75in /  1007.3hPa WNW 4.1mph /  6.6km/h 21mph /  33.8km/h 58.4% 0.00in /  0mm 111 W/m2
09:39 37.8 °F /  3.2 °C 24.5 °F /  -4.2 °C 29.75in /  1007.3hPa NW 7.6mph /  12.2km/h 18mph /  29km/h 58.4% 0.00in /  0mm 185 W/m2
09:44 37.8 °F /  3.2 °C 25.4 °F /  -3.7 °C 29.75in /  1007.3hPa WNW 9.7mph /  15.6km/h 23mph /  37km/h 60.4% 0.00in /  0mm 190 W/m2
09:49 37.9 °F /  3.3 °C 24 °F /  -4.4 °C 29.75in /  1007.3hPa WNW 9mph /  14.5km/h 28mph /  45.1km/h 57% 0.00in /  0mm 88 W/m2
09:54 38 °F /  3.3 °C 24.1 °F /  -4.4 °C 29.75in /  1007.3hPa NW 7.2mph /  11.6km/h 28mph /  45.1km/h 57% 0.00in /  0mm 265 W/m2
09:59 38.1 °F /  3.4 °C 24.1 °F /  -4.4 °C 29.75in /  1007.3hPa WNW 7mph /  11.3km/h 28mph /  45.1km/h 56.6% 0.00in /  0mm 316 W/m2
10:04 38.6 °F /  3.7 °C 24.6 °F /  -4.1 °C 29.75in /  1007.3hPa WNW 4.8mph /  7.7km/h 28mph /  45.1km/h 56.7% 0.00in /  0mm 309 W/m2
10:09 39.2 °F /  4 °C 24.6 °F /  -4.1 °C 29.75in /  1007.3hPa WNW 6.8mph /  10.9km/h 16mph /  25.7km/h 55.3% 0.00in /  0mm 378 W/m2
10:14 39.7 °F /  4.3 °C 24.3 °F /  -4.3 °C 29.75in /  1007.3hPa WNW 7.3mph /  11.7km/h 19mph /  30.6km/h 53.5% 0.00in /  0mm 420 W/m2
10:19 40.4 °F /  4.7 °C 24.1 °F /  -4.4 °C 29.75in /  1007.3hPa NW 7.1mph /  11.4km/h 19mph /  30.6km/h 51.7% 0.00in /  0mm 459 W/m2
10:24 40.9 °F /  4.9 °C 23.6 °F /  -4.7 °C 29.75in /  1007.3hPa WNW 11.4mph /  18.3km/h 28mph /  45.1km/h 49.8% 0.00in /  0mm 464 W/m2
10:29 40.7 °F /  4.8 °C 22.6 °F /  -5.2 °C 29.75in /  1007.3hPa WNW 14.2mph /  22.9km/h 28mph /  45.1km/h 48% 0.00in /  0mm 471 W/m2
10:34 40.4 °F /  4.7 °C 22.4 °F /  -5.3 °C 29.75in /  1007.3hPa NW 9.6mph /  15.4km/h 28mph /  45.1km/h 48.3% 0.00in /  0mm 471 W/m2
10:39 40.4 °F /  4.7 °C 22 °F /  -5.6 °C 29.75in /  1007.3hPa WNW 7.6mph /  12.2km/h 19mph /  30.6km/h 47.5% 0.00in /  0mm 290 W/m2
10:44 40.5 °F /  4.7 °C 22.3 °F /  -5.4 °C 29.75in /  1007.3hPa WNW 8.8mph /  14.2km/h 19mph /  30.6km/h 48% 0.00in /  0mm 322 W/m2
10:49 40.5 °F /  4.7 °C 22.2 °F /  -5.4 °C 29.74in /  1007hPa WNW 8.7mph /  14km/h 19mph /  30.6km/h 47.7% 0.00in /  0mm 322 W/m2
10:54 40.5 °F /  4.7 °C 21.9 °F /  -5.6 °C 29.74in /  1007hPa NW 11.7mph /  18.8km/h 22mph /  35.4km/h 47% 0.00in /  0mm 408 W/m2
10:59 40.3 °F /  4.6 °C 21.6 °F /  -5.8 °C 29.75in /  1007.3hPa NW 9mph /  14.5km/h 22mph /  35.4km/h 46.7% 0.00in /  0mm 443 W/m2
11:04 40.2 °F /  4.6 °C 21.6 °F /  -5.8 °C 29.75in /  1007.3hPa WNW 8.5mph /  13.7km/h 23mph /  37km/h 46.9% 0.00in /  0mm 443 W/m2
11:08 40.3 °F /  4.6 °C 22.2 °F /  -5.4 °C 29.74in /  1007hPa NW 6.8mph /  10.9km/h 23mph /  37km/h 48% 0.00in /  0mm 98 W/m2
Hartford County Weather
Compliments of Weather Underground - 2 mb